Time;durP1;ratioP1;P1;durP2;ratioP2;P2;SDS_P1;SDS_P2;PMS_P1;PMS_P2;Temp;Humidity;BMP_temperature;BMP_pressure;BME280_temperature;BME280_humidity;BME280_pressure;Samples;Min_cycle;Max_cycle;Signal;HPM_P1;HPM_P2
2022/12/13 00:01:27;;;;;;;12.65;7.53;;;;;;;-0.90;79.88;94679.22;5063870;28;20041;-83
2022/12/13 00:03:55;;;;;;;15.48;7.22;;;;;;;-0.82;80.40;94688.56;5062641;28;20047;-83
2022/12/13 00:06:22;;;;;;;12.75;6.50;;;;;;;-0.80;79.72;94689.16;5062832;28;20043;-83
2022/12/13 00:08:53;;;;;;;15.93;7.43;;;;;;;-0.88;79.43;94668.59;5063606;28;20059;-83
2022/12/13 00:11:23;;;;;;;;;;;;;;;-0.57;80.96;94693.75;5061933;28;20056;-83
2022/12/13 00:13:50;;;;;;;16.95;7.50;;;;;;;-0.62;79.93;94696.19;5060324;28;19955;-83
2022/12/13 00:16:24;;;;;;;12.90;7.50;;;;;;;-1.27;80.21;94583.91;5060441;28;20060;-82
2022/12/13 00:18:57;;;;;;;13.93;7.55;;;;;;;-0.54;79.81;94704.53;5063870;28;20097;-83
2022/12/13 00:21:33;;;;;;;11.43;7.07;;;;;;;-1.33;78.94;94579.56;5043549;28;20072;-83
2022/12/13 00:24:01;;;;;;;14.43;7.70;;;;;;;-1.86;79.41;94512.41;5080612;28;20048;-83
2022/12/13 00:26:43;;;;;;;13.90;7.70;;;;;;;-0.57;79.56;94719.78;5061002;28;20052;-83
2022/12/13 00:29:11;;;;;;;12.35;7.03;;;;;;;-0.70;77.89;94709.50;5063831;28;20052;-84
2022/12/13 00:31:42;;;;;;;12.38;6.68;;;;;;;-1.86;78.15;94543.59;5063410;28;20035;-83
2022/12/13 00:34:07;;;;;;;14.55;7.35;;;;;;;-0.75;79.40;94707.53;5082244;28;20067;-83
2022/12/13 00:36:34;;;;;;;12.27;6.78;;;;;;;-0.61;79.50;94703.00;5063228;28;20616;-83
2022/12/13 00:39:01;;;;;;;16.70;8.52;;;;;;;-0.74;79.30;94692.69;5064161;28;20502;-82
2022/12/13 00:41:31;;;;;;;15.57;8.43;;;;;;;-0.98;78.46;94691.72;5063850;28;20122;-83
2022/12/13 00:43:58;;;;;;;15.40;7.90;;;;;;;-1.45;78.37;94633.28;5064206;28;20079;-83
2022/12/13 00:46:27;;;;;;;13.55;7.65;;;;;;;-0.88;78.87;94723.28;5061246;28;20044;-83
2022/12/13 00:48:57;;;;;;;14.32;7.38;;;;;;;-1.66;77.64;94618.81;5063155;28;20075;-82
2022/12/13 00:51:25;;;;;;;17.17;7.97;;;;;;;-0.90;78.69;94725.28;5063504;28;20643;-83
2022/12/13 00:53:53;;;;;;;18.25;8.50;;;;;;;-1.28;78.86;94676.75;5063874;28;20135;-83
2022/12/13 00:56:22;;;;;;;13.95;7.38;;;;;;;-1.03;78.57;94721.00;5059159;28;20040;-83
2022/12/13 00:58:48;;;;;;;15.63;6.93;;;;;;;-1.79;77.44;94603.34;5060514;28;20563;-83
2022/12/13 01:01:19;;;;;;;13.82;7.40;;;;;;;-1.35;78.19;94676.00;5060878;28;20044;-83
2022/12/13 01:03:46;;;;;;;14.52;8.15;;;;;;;-1.11;78.34;94720.47;5060175;28;20051;-83
2022/12/13 01:06:20;;;;;;;15.98;7.80;;;;;;;-1.15;78.96;94722.72;5063767;28;20044;-83
2022/12/13 01:08:49;;;;;;;17.42;9.27;;;;;;;-1.50;79.95;94719.72;5063533;28;20048;-83
2022/12/13 01:11:16;;;;;;;18.02;8.63;;;;;;;-1.65;79.66;94665.41;5076212;28;20056;-83
2022/12/13 01:13:42;;;;;;;18.23;8.68;;;;;;;-1.15;80.60;94714.09;5067265;28;20043;-84
2022/12/13 01:16:12;;;;;;;18.02;9.77;;;;;;;-1.81;79.71;94616.53;5062490;28;20052;-83
2022/12/13 01:18:41;;;;;;;18.63;9.38;;;;;;;-1.27;80.28;94716.56;5042961;28;20052;-83
2022/12/13 01:21:12;;;;;;;18.17;9.25;;;;;;;-1.14;79.05;94708.66;5062832;28;20056;-84
2022/12/13 01:23:38;;;;;;;19.33;9.60;;;;;;;-1.11;79.73;94718.66;5062285;28;20175;-83
2022/12/13 01:26:11;;;;;;;21.90;9.73;;;;;;;-1.00;80.37;94717.97;5062577;28;20090;-83
2022/12/13 01:28:40;;;;;;;21.27;10.02;;;;;;;-3.30;79.66;94338.50;5063727;28;20047;-83
2022/12/13 01:31:11;;;;;;;18.42;9.90;;;;;;;-0.85;80.20;94710.63;5061112;28;20557;-83
2022/12/13 01:33:38;;;;;;;18.27;9.98;;;;;;;-1.61;78.35;94611.22;5062115;28;20044;-83
2022/12/13 01:36:09;;;;;;;19.00;10.23;;;;;;;-0.82;79.21;94707.59;5058447;28;20049;-83
2022/12/13 01:38:36;;;;;;;17.90;9.18;;;;;;;-0.79;78.10;94712.38;5046933;28;20469;-83
2022/12/13 01:41:08;;;;;;;16.05;8.52;;;;;;;-0.90;76.99;94713.06;5060684;28;20050;-83
2022/12/13 01:43:36;;;;;;;17.33;8.75;;;;;;;-0.91;77.71;94708.88;5066836;28;20126;-83
2022/12/13 01:46:05;;;;;;;15.15;8.75;;;;;;;-1.00;75.91;94717.97;5029923;28;20049;-83
2022/12/13 01:48:41;;;;;;;17.35;9.00;;;;;;;-1.89;76.69;94598.59;5067369;28;20133;-83
2022/12/13 01:51:15;;;;;;;13.75;7.60;;;;;;;-1.27;76.99;94721.78;5064101;28;20071;-83
2022/12/13 01:53:46;;;;;;;17.92;9.20;;;;;;;-1.26;78.12;94725.97;5067250;28;20040;-83
2022/12/13 01:56:23;;;;;;;18.52;10.15;;;;;;;-1.28;78.39;94720.19;5066257;28;20043;-84
2022/12/13 01:58:54;;;;;;;17.08;9.20;;;;;;;-1.50;77.95;94679.91;5067346;28;20055;-84
2022/12/13 02:01:20;;;;;;;19.15;9.60;;;;;;;-1.93;78.71;94604.44;5052599;28;20079;-84
2022/12/13 02:03:47;;;;;;;18.25;9.70;;;;;;;-1.27;79.11;94722.56;5046983;28;20071;-82
2022/12/13 02:06:23;;;;;;;19.92;9.90;;;;;;;-1.21;78.82;94719.13;5046611;28;20123;-83
2022/12/13 02:08:54;;;;;;;16.17;8.70;;;;;;;-1.32;79.07;94699.00;5047451;28;20205;-83
2022/12/13 02:11:22;;;;;;;19.42;9.70;;;;;;;-1.79;79.48;94619.72;5048482;28;20162;-83
2022/12/13 02:13:49;;;;;;;21.33;10.55;;;;;;;-2.60;79.09;94500.16;5061033;28;21144;-83
2022/12/13 02:16:21;;;;;;;15.15;9.10;;;;;;;-1.41;79.50;94684.66;5054120;28;20051;-82
2022/12/13 02:19:11;;;;;;;16.92;8.63;;;;;;;-1.00;79.67;94711.97;5057534;28;20074;-83
2022/12/13 02:21:55;;;;;;;19.73;10.07;;;;;;;-0.94;79.15;94716.31;5048001;28;20041;-83
2022/12/13 02:24:43;;;;;;;18.85;10.50;;;;;;;-1.14;78.44;94716.47;5055732;28;20114;-82
2022/12/13 02:27:18;;;;;;;20.67;9.98;;;;;;;-1.86;79.00;94623.38;5067085;28;20044;-82
2022/12/13 02:30:08;;;;;;;16.15;9.20;;;;;;;-1.24;79.19;94716.16;5066929;28;20043;-83
2022/12/13 02:33:11;;;;;;;17.15;10.43;;;;;;;-1.36;79.98;94686.63;5066216;28;20036;-84
2022/12/13 02:36:01;;;;;;;20.33;11.02;;;;;;;-1.64;79.72;94643.63;5065018;28;20078;-83
2022/12/13 02:38:51;;;;;;;19.08;9.68;;;;;;;-1.23;79.79;94723.75;5065252;28;20054;-83
2022/12/13 02:41:27;;;;;;;20.88;11.63;;;;;;;-1.24;79.63;94731.78;5066539;28;20553;-83
2022/12/13 02:44:13;;;;;;;18.15;10.27;;;;;;;-1.86;80.33;94660.56;5066241;28;20059;-82
2022/12/13 02:46:47;;;;;;;23.13;12.02;;;;;;;-2.03;80.66;94625.69;5065413;28;20044;-82
2022/12/13 02:49:15;;;;;;;21.55;10.80;;;;;;;-1.81;80.76;94654.72;5066929;28;20040;-83
2022/12/13 02:51:42;;;;;;;22.05;10.77;;;;;;;-1.48;79.65;94709.13;5073232;28;20043;-82
2022/12/13 02:54:07;;;;;;;22.60;10.98;;;;;;;-1.94;79.53;94621.81;5076600;28;20086;-83
2022/12/13 02:56:33;;;;;;;21.33;10.23;;;;;;;-2.25;79.37;94583.63;5094515;28;20075;-82
2022/12/13 02:59:01;;;;;;;20.63;10.35;;;;;;;-1.58;79.12;94678.38;5094683;28;20040;-82
2022/12/13 03:01:39;;;;;;;18.75;10.65;;;;;;;-1.37;79.33;94729.25;5077427;28;20036;-82
2022/12/13 03:04:26;;;;;;;24.55;11.70;;;;;;;-1.34;79.89;94732.22;5056490;28;20040;-83
2022/12/13 03:07:14;;;;;;;20.70;10.50;;;;;;;-1.40;79.96;94727.06;5083347;28;20056;-83
2022/12/13 03:10:20;;;;;;;21.35;12.05;;;;;;;-1.93;79.81;94662.41;5095228;28;20044;-83
2022/12/13 03:16:20;;;;;;;22.67;10.93;;;;;;;-1.76;80.04;94673.91;5095201;27;20156;-82
2022/12/13 03:18:49;;;;;;;20.80;11.50;;;;;;;-2.16;80.23;94630.94;5075778;28;20055;-83
2022/12/13 03:21:14;;;;;;;26.58;12.98;;;;;;;-2.46;80.24;94599.53;5076604;28;20101;-82
2022/12/13 03:23:40;;;;;;;25.83;12.65;;;;;;;-1.95;80.35;94673.00;5077494;28;20047;-83
2022/12/13 03:26:16;;;;;;;26.92;13.57;;;;;;;-2.30;79.92;94613.84;5075616;28;20466;-83
2022/12/13 03:28:41;;;;;;;23.25;11.60;;;;;;;-1.52;80.30;94707.94;5076675;28;20097;-83
2022/12/13 03:31:07;;;;;;;21.73;11.20;;;;;;;-1.32;79.88;94745.03;5095874;28;20044;-83
2022/12/13 03:33:33;;;;;;;24.10;11.50;;;;;;;-1.15;79.93;94734.91;5078402;28;20047;-84
2022/12/13 03:36:00;;;;;;;26.35;12.85;;;;;;;-1.35;79.36;94699.41;5095292;28;20044;-83
2022/12/13 03:38:26;;;;;;;25.52;12.63;;;;;;;-1.02;79.35;94740.81;5076525;28;20039;-83
2022/12/13 03:40:59;;;;;;;27.90;13.15;;;;;;;-1.27;79.38;94724.38;5093961;28;20040;-83
2022/12/13 03:43:25;;;;;;;30.63;13.80;;;;;;;-2.16;79.47;94586.78;5072783;28;20108;-84
2022/12/13 03:45:52;;;;;;;31.13;13.10;;;;;;;-1.46;79.37;94710.53;5085630;28;20090;-83
2022/12/13 03:48:17;;;;;;;36.90;13.45;;;;;;;-1.97;79.27;94628.22;5074540;28;20040;-83
2022/12/13 03:50:43;;;;;;;27.75;13.90;;;;;;;-1.73;79.03;94683.06;5093114;27;20147;-84
2022/12/13 03:53:08;;;;;;;29.55;13.55;;;;;;;-1.64;79.07;94724.22;5110093;28;20104;-83
2022/12/13 03:55:34;;;;;;;25.58;13.43;;;;;;;-1.89;79.11;94693.97;5094756;28;20071;-83
2022/12/13 03:57:59;;;;;;;27.88;13.30;;;;;;;-2.31;79.36;94633.81;5075212;28;20059;-84
2022/12/13 04:00:24;;;;;;;26.75;13.00;;;;;;;-2.02;79.48;94693.03;5076578;28;20621;-83
2022/12/13 04:02:50;;;;;;;26.20;12.70;;;;;;;-2.12;79.81;94700.47;5074319;28;20044;-83
2022/12/13 04:05:16;;;;;;;28.48;12.82;;;;;;;-2.65;79.75;94642.75;5092489;28;20028;-84
2022/12/13 04:07:42;;;;;;;24.98;11.82;;;;;;;-1.93;80.19;94745.56;5075353;28;20146;-84
2022/12/13 04:10:08;;;;;;;23.33;12.73;;;;;;;-3.55;80.35;94491.38;5075500;28;20479;-83
2022/12/13 04:15:17;;;;;;;26.30;13.38;;;;;;;-2.89;80.14;94625.22;5093525;28;20070;-83
2022/12/13 04:17:43;;;;;;;27.35;13.93;;;;;;;-2.16;80.62;94750.44;5093369;28;20075;-84
2022/12/13 04:20:09;;;;;;;24.27;13.20;;;;;;;-1.98;80.43;94761.75;5075095;28;20048;-83
2022/12/13 04:22:34;;;;;;;25.38;13.07;;;;;;;-2.26;79.38;94718.91;5075764;28;20058;-84
2022/12/13 04:24:59;;;;;;;25.80;13.50;;;;;;;-2.00;79.83;94791.56;5075812;28;20044;-84
2022/12/13 04:27:25;;;;;;;24.90;12.57;;;;;;;-3.58;79.19;94618.75;5072229;28;20040;-84
2022/12/13 04:29:50;;;;;;;24.00;11.65;;;;;;;-2.94;80.05;94700.31;5075476;28;20438;-84
2022/12/13 04:32:16;;;;;;;27.50;13.77;;;;;;;-4.85;79.38;94389.50;5072392;28;20059;-84
2022/12/13 04:34:41;;;;;;;29.73;14.48;;;;;;;-2.92;80.23;94709.50;5093881;28;20043;-84
2022/12/13 04:37:08;;;;;;;26.77;13.73;;;;;;;-2.52;80.25;94762.16;5058825;28;20105;-84
2022/12/13 04:39:34;;;;;;;31.20;13.15;;;;;;;-3.03;79.41;94681.56;5076551;28;20474;-84
2022/12/13 04:41:59;;;;;;;28.98;14.48;;;;;;;-2.57;79.93;94748.16;5089297;28;20045;-84
2022/12/13 04:44:25;;;;;;;26.77;14.25;;;;;;;-2.21;79.39;94831.56;5072754;28;20033;-84
2022/12/13 04:46:50;;;;;;;27.35;13.68;;;;;;;-2.32;80.57;94821.81;5064049;28;20037;-82
2022/12/13 04:49:15;;;;;;;28.38;13.80;;;;;;;-2.28;79.90;94833.41;5083446;28;20044;-84
2022/12/13 04:51:41;;;;;;;27.40;14.35;;;;;;;-3.02;80.06;94762.78;5077059;28;20064;-84
2022/12/13 04:54:06;;;;;;;30.00;14.15;;;;;;;-3.28;80.55;94719.50;5067560;28;20043;-84
2022/12/13 04:56:32;;;;;;;34.22;15.93;;;;;;;-2.96;80.99;94749.00;5061312;28;20054;-84
2022/12/13 04:58:58;;;;;;;37.47;15.95;;;;;;;-3.62;80.18;94643.50;5072885;28;20051;-84
2022/12/13 05:01:23;;;;;;;31.30;14.65;;;;;;;-3.13;80.19;94743.44;5077504;28;20044;-84
2022/12/13 05:03:49;;;;;;;30.08;14.30;;;;;;;-3.30;80.67;94724.06;5094544;28;20126;-84
2022/12/13 05:06:14;;;;;;;32.55;14.68;;;;;;;-3.13;80.80;94743.44;5078989;28;20292;-84
2022/12/13 05:08:40;;;;;;;34.00;14.63;;;;;;;-2.97;80.59;94750.00;5081057;28;20044;-85
2022/12/13 05:11:07;;;;;;;27.23;12.63;;;;;;;-2.57;80.19;94845.00;5065162;28;20665;-85
2022/12/13 05:13:32;;;;;;;30.95;14.82;;;;;;;-2.48;81.46;94840.41;5071672;28;20104;-84
2022/12/13 05:16:02;;;;;;;36.50;15.27;;;;;;;-2.77;80.97;94828.66;5058668;28;20063;-84
2022/12/13 05:18:27;;;;;;;31.77;14.02;;;;;;;-3.34;80.21;94748.78;5076913;28;20050;-83
2022/12/13 05:20:53;;;;;;;33.53;15.02;;;;;;;-3.59;80.92;94710.50;5072636;28;20100;-84
2022/12/13 05:23:22;;;;;;;27.35;13.43;;;;;;;-3.28;80.05;94753.97;5050753;28;20041;-84
2022/12/13 05:25:47;;;;;;;30.55;14.90;;;;;;;-3.05;79.63;94802.88;5067529;28;20054;-84
2022/12/13 05:28:14;;;;;;;34.15;15.27;;;;;;;-4.12;80.15;94644.03;5053398;28;20044;-84
2022/12/13 05:30:41;;;;;;;32.42;15.10;;;;;;;-3.78;79.67;94698.28;5089415;28;20063;-84
2022/12/13 05:33:07;;;;;;;30.13;14.85;;;;;;;-2.79;78.80;94879.94;5065130;28;20041;-84
2022/12/13 05:35:33;;;;;;;29.92;14.95;;;;;;;-3.53;79.27;94771.91;5070203;28;20051;-84
2022/12/13 05:37:58;;;;;;;29.50;14.57;;;;;;;-2.58;80.40;94865.97;5089590;28;20036;-84
2022/12/13 05:40:26;;;;;;;32.15;15.23;;;;;;;-2.52;80.54;94873.00;5067010;28;20050;-84
2022/12/13 05:42:52;;;;;;;37.90;15.35;;;;;;;-3.59;79.76;94709.69;5088138;28;20416;-84
2022/12/13 05:45:18;;;;;;;27.38;14.38;;;;;;;-2.55;78.23;94883.75;5065178;28;20100;-85
2022/12/13 05:47:44;;;;;;;28.35;14.80;;;;;;;-5.29;79.00;94454.63;5069745;28;20032;-85
2022/12/13 05:50:10;;;;;;;31.40;14.88;;;;;;;-3.36;78.71;94766.34;5086540;28;20067;-84
2022/12/13 05:52:35;;;;;;;29.17;14.27;;;;;;;-4.38;78.60;94617.06;5053215;28;20036;-84
2022/12/13 05:55:01;;;;;;;29.95;14.45;;;;;;;-3.12;77.86;94820.22;5086533;28;20047;-85
2022/12/13 05:57:27;;;;;;;31.83;14.93;;;;;;;-3.55;78.74;94762.72;5066312;28;20960;-86
2022/12/13 05:59:53;;;;;;;30.98;14.63;;;;;;;-3.47;79.10;94756.56;5064154;28;20100;-83
2022/12/13 06:02:18;;;;;;;33.22;16.30;;;;;;;-3.11;78.54;94799.28;5068746;28;20052;-84
2022/12/13 06:04:44;;;;;;;29.40;14.13;;;;;;;-3.13;78.28;94813.47;5085921;28;20043;-84
2022/12/13 06:07:10;;;;;;;24.67;12.50;;;;;;;-3.38;76.90;94776.91;5087688;28;20038;-84
2022/12/13 06:09:35;;;;;;;29.00;14.15;;;;;;;-3.18;77.07;94803.66;5068872;28;20933;-83
2022/12/13 06:12:01;;;;;;;29.77;13.68;;;;;;;-3.36;76.96;94777.53;5084979;28;20051;-83
2022/12/13 06:17:18;;;;;;;27.67;13.60;;;;;;;-5.32;76.50;94489.41;5090098;28;20103;-83
2022/12/13 06:19:46;;;;;;;28.08;14.70;;;;;;;-4.46;78.10;94609.50;5071836;28;20052;-83
2022/12/13 06:22:13;;;;;;;34.33;15.60;;;;;;;-5.17;77.81;94512.53;5062994;28;20127;-85
2022/12/13 06:24:39;;;;;;;32.08;15.57;;;;;;;-4.76;77.28;94596.06;5084392;28;20070;-84
2022/12/13 06:27:04;;;;;;;33.45;15.15;;;;;;;-3.68;77.28;94722.03;5059898;28;20558;-85
2022/12/13 06:29:30;;;;;;;29.63;14.45;;;;;;;-4.39;75.54;94601.72;5057653;28;20134;-84
2022/12/13 06:31:58;;;;;;;28.17;14.07;;;;;;;-2.59;77.17;94932.69;5059934;28;20167;-85
2022/12/13 06:34:23;;;;;;;29.02;14.45;;;;;;;-5.35;76.04;94487.22;5082913;28;20054;-84
2022/12/13 06:36:49;;;;;;;34.17;14.75;;;;;;;-7.12;75.58;94193.75;5084020;28;20770;-85
2022/12/13 06:39:14;;;;;;;32.50;15.15;;;;;;;-3.08;76.61;94864.75;5063285;28;20047;-84
2022/12/13 06:41:40;;;;;;;29.77;14.07;;;;;;;-4.96;76.47;94571.09;5065651;28;20101;-85
2022/12/13 06:44:06;;;;;;;31.52;15.30;;;;;;;-6.86;77.12;94292.81;5061626;28;20494;-85
2022/12/13 06:46:32;;;;;;;39.60;16.45;;;;;;;-5.47;77.42;94481.00;5088002;28;20342;-84
2022/12/13 06:48:58;;;;;;;28.77;14.65;;;;;;;-3.95;76.99;94722.94;5084637;28;20131;-85
2022/12/13 06:51:23;;;;;;;29.08;15.70;;;;;;;-3.17;77.25;94843.38;5075574;28;20135;-85
2022/12/13 06:53:48;;;;;;;35.75;15.13;;;;;;;-5.13;76.58;94537.03;5067190;28;20048;-87
2022/12/13 06:56:14;;;;;;;29.67;15.10;;;;;;;-5.47;76.21;94463.72;5091734;28;20119;-85
2022/12/13 06:58:41;;;;;;;36.17;15.90;;;;;;;-3.21;77.19;94798.91;5066048;28;20036;-84
2022/12/13 07:01:09;;;;;;;30.33;14.70;;;;;;;-2.88;74.80;94863.78;5063851;28;20073;-83
2022/12/13 07:03:35;;;;;;;32.65;15.65;;;;;;;-2.48;75.51;94926.91;5056523;28;20071;-83
2022/12/13 07:06:15;;;;;;;27.92;14.35;;;;;;;-2.68;75.71;94876.78;5059363;28;20105;-83
2022/12/13 07:08:52;;;;;;;35.83;16.65;;;;;;;-3.30;75.06;94768.94;5087276;28;20050;-83
2022/12/13 07:11:21;;;;;;;33.65;15.38;;;;;;;-2.12;76.24;94936.09;5046257;28;20100;-83
2022/12/13 07:13:46;;;;;;;31.45;15.32;;;;;;;-2.77;75.25;94862.41;5061771;28;20040;-84
2022/12/13 07:16:12;;;;;;;31.45;15.15;;;;;;;-2.93;76.10;94845.41;5087957;28;20046;-83
2022/12/13 07:18:38;;;;;;;39.47;16.95;;;;;;;-2.32;76.08;94938.72;5080014;28;20147;-84
2022/12/13 07:21:17;;;;;;;27.63;15.13;;;;;;;-4.18;74.53;94681.03;5081943;28;20107;-85
2022/12/13 07:23:42;;;;;;;33.78;16.00;;;;;;;-2.53;75.57;94981.25;5059279;28;20062;-85
2022/12/13 07:26:08;;;;;;;34.90;15.38;;;;;;;-4.38;75.62;94686.16;5065865;28;20039;-83
2022/12/13 07:28:38;;;;;;;39.00;17.63;;;;;;;-2.62;76.47;94933.09;5054012;28;20040;-83
2022/12/13 07:31:06;;;;;;;35.95;16.88;;;;;;;-2.63;75.75;94944.47;5064955;28;20101;-85
2022/12/13 07:33:35;;;;;;;33.70;16.13;;;;;;;-2.99;77.08;94892.09;5083450;28;20418;-85
2022/12/13 07:36:02;;;;;;;37.40;17.58;;;;;;;-2.90;78.11;94857.97;5067714;28;20156;-83
2022/12/13 07:38:28;;;;;;;42.47;18.05;;;;;;;-2.18;76.80;94966.28;5075510;28;20052;-84
2022/12/13 07:40:55;;;;;;;34.22;16.42;;;;;;;-2.63;75.17;94886.56;5060011;28;20036;-83
2022/12/13 07:43:23;;;;;;;37.33;16.88;;;;;;;-2.77;73.79;94865.00;5067101;28;20052;-84
2022/12/13 07:45:49;;;;;;;33.90;16.40;;;;;;;-3.39;74.61;94769.34;5064663;28;20040;-83
2022/12/13 07:48:14;;;;;;;29.90;15.13;;;;;;;-2.56;73.65;94919.31;5066950;28;20046;-84
2022/12/13 07:50:40;;;;;;;33.80;16.63;;;;;;;-2.62;73.99;94927.09;5061027;28;20043;-86
2022/12/13 07:53:07;;;;;;;37.90;17.20;;;;;;;-2.53;74.53;94926.72;5082648;28;20040;-84
2022/12/13 07:55:35;;;;;;;38.42;17.10;;;;;;;-2.59;74.74;94903.34;5082660;28;20688;-83
2022/12/13 07:58:16;;;;;;;33.97;16.58;;;;;;;-2.94;73.55;94881.94;5064297;28;20032;-85
2022/12/13 08:00:43;;;;;;;33.03;15.82;;;;;;;-3.50;74.70;94796.63;5064430;28;20032;-84
2022/12/13 08:03:09;;;;;;;34.55;15.90;;;;;;;-3.11;75.00;94832.19;5061566;28;20123;-88
2022/12/13 08:05:36;;;;;;;39.45;18.25;;;;;;;-2.43;75.27;94926.31;5088580;28;20643;-85
2022/12/13 08:08:03;;;;;;;35.53;17.10;;;;;;;-3.30;74.96;94794.88;5051257;28;20116;-84
2022/12/13 08:10:29;;;;;;;35.33;16.80;;;;;;;-2.33;73.74;94958.69;5077314;28;20028;-84
2022/12/13 08:12:54;;;;;;;38.40;17.80;;;;;;;-2.94;74.54;94849.00;5063074;28;20053;-87
2022/12/13 08:15:20;;;;;;;36.20;17.00;;;;;;;-2.67;75.38;94880.94;5060238;28;20028;-82
2022/12/13 08:17:46;;;;;;;42.03;16.88;;;;;;;-2.78;74.40;94871.97;5075674;28;20042;-82
2022/12/13 08:20:12;;;;;;;39.08;17.73;;;;;;;-2.00;74.88;94958.69;5052053;28;20035;-82
2022/12/13 08:22:37;;;;;;;35.60;15.55;;;;;;;-2.65;73.94;94902.31;5057280;28;20051;-83
2022/12/13 08:25:04;;;;;;;28.65;13.77;;;;;;;-2.38;72.48;94949.91;5062432;28;20048;-82
2022/12/13 08:27:29;;;;;;;31.17;14.95;;;;;;;-2.87;73.44;94883.53;5080469;28;20039;-82
2022/12/13 08:29:55;;;;;;;35.22;16.27;;;;;;;-3.48;73.93;94762.72;5082991;28;20113;-82
2022/12/13 08:32:20;;;;;;;34.45;15.65;;;;;;;-2.18;74.00;94952.50;5058026;28;20926;-83
2022/12/13 08:34:46;;;;;;;26.92;14.00;;;;;;;-2.08;73.05;94971.88;5063280;28;21106;-83
2022/12/13 08:37:12;;;;;;;30.75;14.85;;;;;;;-2.25;72.87;94942.09;5048548;28;20130;-83
2022/12/13 08:39:38;;;;;;;30.52;13.38;;;;;;;-2.35;71.83;94919.13;5059743;28;20039;-83
2022/12/13 08:42:14;;;;;;;29.55;14.38;;;;;;;-1.93;73.22;94957.88;5061372;28;20569;-83
2022/12/13 08:44:39;;;;;;;27.52;13.55;;;;;;;-1.90;72.07;94978.25;5058068;28;20059;-84
2022/12/13 08:47:05;;;;;;;29.20;13.43;;;;;;;-2.43;71.77;94890.75;5061764;28;20035;-82
2022/12/13 08:49:30;;;;;;;26.52;12.90;;;;;;;-2.52;71.30;94865.19;5079003;28;20075;-83
2022/12/13 08:51:55;;;;;;;29.65;13.18;;;;;;;-2.17;72.15;94907.31;5054604;28;20036;-82
2022/12/13 08:54:25;;;;;;;27.70;12.02;;;;;;;-3.10;70.45;94763.78;5066752;28;20035;-89
2022/12/13 08:56:51;;;;;;;25.13;13.10;;;;;;;-2.55;72.28;94839.63;5055729;28;20152;-85
2022/12/13 08:59:17;;;;;;;21.05;10.25;;;;;;;-2.73;69.84;94807.28;5084387;28;20482;-83
2022/12/13 09:01:43;;;;;;;25.70;12.07;;;;;;;-2.39;71.12;94857.41;5061281;28;20032;-84
2022/12/13 09:04:08;;;;;;;30.00;13.02;;;;;;;-2.99;71.19;94739.03;5060869;28;20040;-86
2022/12/13 09:06:34;;;;;;;25.60;12.23;;;;;;;-2.18;71.06;94827.78;5063408;28;20617;-84
2022/12/13 09:08:59;;;;;;;22.73;11.70;;;;;;;-2.35;69.45;94815.22;5064736;28;20154;-84
2022/12/13 09:11:24;;;;;;;23.40;11.02;;;;;;;-2.08;69.90;94828.97;5060209;28;20043;-84
2022/12/13 09:13:50;;;;;;;27.35;12.85;;;;;;;-2.14;70.24;94822.00;5082383;28;20119;-85
2022/12/13 09:16:22;;;;;;;18.42;10.00;;;;;;;-1.31;69.56;94921.75;5064091;28;20032;-83
2022/12/13 09:18:48;;;;;;;25.98;11.32;;;;;;;-1.11;69.95;94919.03;5060624;28;20031;-85
2022/12/13 09:21:14;;;;;;;26.17;11.95;;;;;;;-1.00;69.38;94918.41;5082434;28;20623;-85
2022/12/13 09:23:43;;;;;;;22.98;11.20;;;;;;;-1.69;67.85;94816.84;5053709;28;20118;-86
2022/12/13 09:26:11;;;;;;;25.00;11.70;;;;;;;-1.99;67.92;94752.41;5037415;28;20159;-85
2022/12/13 09:28:37;;;;;;;21.67;10.63;;;;;;;-0.94;68.35;94899.34;5035437;28;20040;-83
2022/12/13 09:31:28;;;;;;;21.35;10.88;;;;;;;-0.86;66.57;94893.09;5053922;28;20043;-85
2022/12/13 09:33:54;;;;;;;23.60;12.23;;;;;;;-1.47;66.56;94781.75;5057898;28;20091;-84
2022/12/13 09:36:20;;;;;;;22.13;10.77;;;;;;;-0.59;65.25;94901.50;5034712;28;20041;-83
2022/12/13 09:38:46;;;;;;;21.13;11.00;;;;;;;-1.47;67.32;94767.94;5038246;28;20605;-83
2022/12/13 09:41:21;;;;;;;23.73;11.73;;;;;;;-1.50;68.31;94730.13;5038444;28;20032;-84
2022/12/13 09:43:56;;;;;;;25.40;11.85;;;;;;;-0.57;68.31;94848.22;5035680;28;20043;-84
2022/12/13 09:46:34;;;;;;;26.15;11.73;;;;;;;-2.56;65.71;94553.25;5039375;28;20045;-86
2022/12/13 09:49:03;;;;;;;20.80;11.27;;;;;;;-1.36;64.19;94723.84;5060013;28;20051;-83
2022/12/13 09:51:31;;;;;;;27.98;13.30;;;;;;;-0.68;65.86;94820.22;5037316;28;20863;-84
2022/12/13 09:53:57;;;;;;;27.13;12.65;;;;;;;-1.10;66.93;94771.50;5053744;28;20156;-83
2022/12/13 09:56:23;;;;;;;26.65;12.63;;;;;;;-0.82;66.58;94792.72;5039010;28;20047;-83
2022/12/13 09:58:55;;;;;;;25.25;12.38;;;;;;;-0.77;65.94;94795.50;5054427;28;20078;-84
2022/12/13 10:01:21;;;;;;;27.40;11.60;;;;;;;-1.04;64.36;94768.84;5039059;28;20041;-85
2022/12/13 10:03:49;;;;;;;27.98;12.80;;;;;;;-0.85;65.27;94757.50;5056043;28;20044;-83
2022/12/13 10:06:23;;;;;;;23.20;11.98;;;;;;;-0.65;65.34;94806.81;5061490;28;20106;-83
2022/12/13 10:08:54;;;;;;;21.92;11.55;;;;;;;-0.54;65.23;94833.97;5060866;28;20075;-84
2022/12/13 10:11:21;;;;;;;23.05;12.45;;;;;;;0.09;65.26;94886.72;5044094;28;20118;-84
2022/12/13 10:13:59;;;;;;;24.35;11.50;;;;;;;0.46;63.32;94829.38;5047269;28;20048;-84
2022/12/13 10:16:43;;;;;;;20.45;10.85;;;;;;;1.42;61.16;94878.88;5061548;28;20422;-84
2022/12/13 10:19:18;;;;;;;21.45;10.73;;;;;;;2.02;60.67;94876.09;5041765;28;20048;-84
2022/12/13 10:21:45;;;;;;;22.33;10.75;;;;;;;1.74;59.94;94740.84;5058983;28;20048;-85
2022/12/13 10:24:21;;;;;;;23.23;10.98;;;;;;;2.77;58.43;94869.06;5068026;28;20048;-85
2022/12/13 10:26:46;;;;;;;20.15;11.40;;;;;;;0.56;58.06;94504.25;5060505;28;20047;-86
2022/12/13 10:29:12;;;;;;;22.10;10.98;;;;;;;2.64;55.62;94785.56;5068025;28;20047;-86
2022/12/13 10:31:41;;;;;;;25.98;11.88;;;;;;;2.83;56.77;94729.31;5064169;28;20097;-86
2022/12/13 10:36:42;;;;;;;25.25;12.65;;;;;;;3.89;55.41;94830.63;3637851;22;20291;-86
2022/12/13 10:39:17;;;;;;;20.77;11.32;;;;;;;3.66;55.32;94833.44;5081448;28;20039;-85
2022/12/13 10:41:45;;;;;;;23.75;12.88;;;;;;;3.55;53.34;94763.53;5079975;28;20103;-83
2022/12/13 10:44:10;;;;;;;22.77;11.82;;;;;;;4.27;53.28;94832.47;5075509;28;20035;-82
2022/12/13 10:46:40;;;;;;;21.05;11.75;;;;;;;3.21;54.19;94686.72;5095236;28;20118;-83
2022/12/13 10:49:36;;;;;;;24.35;13.18;;;;;;;4.05;53.84;94805.41;5084060;28;20072;-83
2022/12/13 10:52:02;;;;;;;24.25;12.73;;;;;;;3.03;52.47;94716.59;5079446;28;20300;-83
2022/12/13 10:54:37;;;;;;;27.02;13.55;;;;;;;3.20;52.69;94750.66;5084707;28;20436;-83
2022/12/13 10:57:03;;;;;;;28.98;13.73;;;;;;;2.61;54.56;94715.31;5082989;28;20036;-83
2022/12/13 10:59:37;;;;;;;31.23;14.13;;;;;;;2.78;56.61;94760.69;5082063;28;20273;-82
2022/12/13 11:02:28;;;;;;;29.73;14.18;;;;;;;2.69;56.45;94809.22;5078360;28;20027;-82
2022/12/13 11:04:54;;;;;;;25.50;13.68;;;;;;;2.68;58.12;94799.75;5084570;28;21030;-83
2022/12/13 11:07:32;;;;;;;29.65;15.27;;;;;;;2.77;58.30;94815.91;5069531;28;20036;-83
2022/12/13 11:10:15;;;;;;;31.95;14.88;;;;;;;2.34;57.71;94686.31;5077297;28;20091;-81
2022/12/13 11:12:41;;;;;;;28.05;13.80;;;;;;;2.49;56.93;94678.75;5074850;28;20036;-82
2022/12/13 11:15:18;;;;;;;39.10;16.42;;;;;;;3.36;55.25;94780.50;5072715;28;20044;-82
2022/12/13 11:17:52;;;;;;;26.92;14.07;;;;;;;3.14;55.62;94727.22;5097422;28;20484;-83
2022/12/13 11:20:26;;;;;;;30.77;14.88;;;;;;;3.62;57.01;94800.84;5080365;28;20047;-84
2022/12/13 11:23:35;;;;;;;29.88;14.38;;;;;;;3.80;55.88;94795.38;5079818;28;20082;-82
2022/12/13 11:26:13;;;;;;;24.05;11.88;;;;;;;3.39;54.68;94778.22;5079392;27;20633;-83
2022/12/13 11:29:10;;;;;;;24.10;11.38;;;;;;;3.65;54.71;94778.63;5075099;28;20035;-86
2022/12/13 11:31:55;;;;;;;19.90;10.82;;;;;;;3.83;54.39;94786.22;5095156;28;20048;-86
2022/12/13 11:34:42;;;;;;;24.48;12.10;;;;;;;3.85;54.15;94789.41;5097948;27;20226;-83
2022/12/13 11:37:41;;;;;;;20.25;10.25;;;;;;;3.53;54.72;94785.75;5084528;28;20298;-82
2022/12/13 11:40:24;;;;;;;22.95;11.27;;;;;;;2.40;55.40;94693.22;5101771;28;20046;-82
2022/12/13 11:42:58;;;;;;;25.13;10.68;;;;;;;3.00;56.84;94794.84;5084497;28;20039;-82